Time;durP1;ratioP1;P1;durP2;ratioP2;P2;SDS_P1;SDS_P2;PMS_P1;PMS_P2;Temp;Humidity;BMP_temperature;BMP_pressure;BME280_temperature;BME280_humidity;BME280_pressure;Samples;Min_cycle;Max_cycle;Signal;HPM_P1;HPM_P2
2021/07/08 00:02:07;;;;;;;1.10;0.80;;;20.00;97.50;;;;;;4863272;29;20076;-85
2021/07/08 00:04:34;;;;;;;1.85;1.50;;;20.00;97.50;;;;;;4857805;29;20045;-85
2021/07/08 00:06:59;;;;;;;3.55;1.17;;;19.90;97.50;;;;;;4871212;29;20041;-85
2021/07/08 00:09:25;;;;;;;2.05;1.13;;;19.90;97.60;;;;;;4854959;29;20060;-86
2021/07/08 00:11:50;;;;;;;1.33;1.20;;;19.90;97.60;;;;;;4859408;29;20388;-86
2021/07/08 00:14:16;;;;;;;2.55;1.10;;;19.90;97.60;;;;;;4857009;29;20117;-87
2021/07/08 00:16:41;;;;;;;1.55;0.90;;;19.90;97.70;;;;;;4858913;29;20053;-85
2021/07/08 00:19:08;;;;;;;2.13;1.25;;;19.80;97.60;;;;;;4854953;29;20049;-85
2021/07/08 00:21:33;;;;;;;3.50;0.85;;;19.80;97.60;;;;;;4870738;29;20105;-86
2021/07/08 00:23:59;;;;;;;1.98;1.10;;;19.80;97.60;;;;;;4873190;29;20049;-85
2021/07/08 00:26:24;;;;;;;1.73;1.05;;;19.80;97.60;;;;;;4875622;29;20050;-85
2021/07/08 00:28:50;;;;;;;2.28;1.13;;;19.80;97.60;;;;;;4857352;29;20049;-86
2021/07/08 00:31:15;;;;;;;4.00;1.17;;;19.80;97.60;;;;;;4858135;29;20145;-86
2021/07/08 00:33:42;;;;;;;1.88;1.35;;;19.70;97.60;;;;;;4870090;29;20393;-86
2021/07/08 00:36:07;;;;;;;1.88;1.00;;;19.70;97.60;;;;;;4863928;29;20322;-85
2021/07/08 00:38:33;;;;;;;3.83;0.80;;;19.70;97.70;;;;;;4856728;29;20042;-86
2021/07/08 00:40:59;;;;;;;1.38;1.17;;;19.70;97.70;;;;;;4860778;29;20053;-86
2021/07/08 00:43:30;;;;;;;1.60;1.20;;;19.70;97.70;;;;;;4860541;29;20041;-86
2021/07/08 00:45:56;;;;;;;1.30;1.20;;;19.70;97.80;;;;;;4856193;29;20105;-86
2021/07/08 00:48:22;;;;;;;2.22;1.20;;;19.60;97.70;;;;;;4862728;29;20049;-86
2021/07/08 00:50:47;;;;;;;1.73;1.20;;;19.70;97.80;;;;;;4857640;29;20112;-86
2021/07/08 00:53:14;;;;;;;1.88;1.17;;;19.60;97.70;;;;;;4854946;29;20037;-85
2021/07/08 00:55:43;;;;;;;1.60;1.38;;;19.60;97.80;;;;;;4857284;29;20044;-85
2021/07/08 00:58:10;;;;;;;1.65;1.20;;;19.60;97.80;;;;;;4864211;29;20042;-86
2021/07/08 01:00:37;;;;;;;2.42;1.30;;;19.60;97.80;;;;;;4863692;29;20076;-86
2021/07/08 01:03:08;;;;;;;1.80;1.15;;;19.60;97.80;;;;;;4861007;29;20094;-85
2021/07/08 01:05:36;;;;;;;2.65;1.50;;;19.60;97.80;;;;;;4874477;29;20050;-86
2021/07/08 01:08:02;;;;;;;3.78;1.08;;;19.50;97.80;;;;;;4876969;29;20052;-85
2021/07/08 01:10:28;;;;;;;2.30;1.60;;;19.50;97.80;;;;;;4871751;29;20278;-86
2021/07/08 01:12:54;;;;;;;1.77;1.20;;;19.50;97.80;;;;;;4855718;29;20053;-86
2021/07/08 01:15:20;;;;;;;1.80;1.63;;;19.50;97.80;;;;;;4854055;29;20073;-85
2021/07/08 01:17:46;;;;;;;2.13;1.65;;;19.50;97.80;;;;;;4873177;29;20041;-85
2021/07/08 01:20:14;;;;;;;2.95;1.88;;;19.50;97.80;;;;;;4859093;29;20052;-85
2021/07/08 01:22:40;;;;;;;2.40;1.40;;;19.40;97.80;;;;;;4857839;29;20061;-85
2021/07/08 01:25:09;;;;;;;4.22;1.60;;;19.40;97.70;;;;;;4858598;29;20073;-86
2021/07/08 01:27:36;;;;;;;3.67;2.03;;;19.40;97.80;;;;;;4858949;29;20065;-86
2021/07/08 01:30:02;;;;;;;3.92;1.70;;;19.40;97.90;;;;;;4873781;29;20728;-85
2021/07/08 01:32:28;;;;;;;4.35;2.15;;;19.30;97.90;;;;;;4852177;29;20485;-85
2021/07/08 01:34:53;;;;;;;2.30;1.90;;;19.30;98.00;;;;;;4863232;29;20034;-85
2021/07/08 01:37:18;;;;;;;4.15;2.10;;;19.30;98.10;;;;;;4869106;29;20149;-85
2021/07/08 01:39:45;;;;;;;2.20;2.00;;;19.30;98.20;;;;;;4855127;29;20342;-86
2021/07/08 01:42:11;;;;;;;2.10;1.95;;;19.30;98.30;;;;;;4855244;29;20053;-85
2021/07/08 01:44:37;;;;;;;5.57;1.88;;;19.30;98.30;;;;;;4854635;29;20052;-85
2021/07/08 01:47:02;;;;;;;4.22;2.10;;;19.20;98.30;;;;;;4855122;29;20631;-85
2021/07/08 01:49:28;;;;;;;2.35;1.73;;;19.20;98.30;;;;;;4856434;29;20045;-86
2021/07/08 01:51:53;;;;;;;2.60;2.15;;;19.20;98.30;;;;;;4862129;29;20041;-85
2021/07/08 01:54:19;;;;;;;2.72;1.73;;;19.20;98.30;;;;;;4866462;29;20302;-86
2021/07/08 01:56:47;;;;;;;5.97;2.45;;;19.20;98.30;;;;;;4853075;29;20509;-85
2021/07/08 01:59:13;;;;;;;9.45;3.25;;;19.10;98.30;;;;;;4855254;29;20093;-85
2021/07/08 02:01:39;;;;;;;4.38;2.20;;;19.10;98.30;;;;;;4853910;29;20057;-85
2021/07/08 02:04:05;;;;;;;2.20;2.00;;;19.10;98.40;;;;;;4854243;29;20041;-85
2021/07/08 02:06:30;;;;;;;2.83;2.30;;;19.10;98.40;;;;;;4856543;29;20305;-85
2021/07/08 02:08:56;;;;;;;2.90;2.05;;;19.10;98.50;;;;;;4870620;29;20045;-85
2021/07/08 02:11:21;;;;;;;6.45;2.50;;;19.10;98.40;;;;;;4859809;29;20049;-85
2021/07/08 02:13:47;;;;;;;3.90;2.40;;;19.10;98.50;;;;;;4862207;29;20367;-85
2021/07/08 02:16:13;;;;;;;5.00;2.47;;;19.10;98.60;;;;;;4876585;29;20033;-86
2021/07/08 02:18:40;;;;;;;5.20;2.30;;;19.10;98.60;;;;;;4857314;29;20037;-86
2021/07/08 02:21:06;;;;;;;3.05;2.35;;;19.10;98.60;;;;;;4862010;29;20041;-86
2021/07/08 02:23:32;;;;;;;3.13;2.10;;;19.10;98.70;;;;;;4877373;29;20045;-87
2021/07/08 02:25:59;;;;;;;6.32;2.30;;;19.00;98.60;;;;;;4858504;29;20055;-84
2021/07/08 02:28:24;;;;;;;3.22;2.22;;;19.10;98.60;;;;;;4851102;29;20078;-84
2021/07/08 02:30:50;;;;;;;5.45;2.17;;;19.00;98.60;;;;;;4853542;29;20037;-86
2021/07/08 02:33:15;;;;;;;4.78;2.67;;;19.10;98.60;;;;;;4850987;29;20050;-85
2021/07/08 02:35:41;;;;;;;6.10;2.53;;;19.10;98.50;;;;;;4855444;29;20044;-85
2021/07/08 02:38:06;;;;;;;5.10;2.55;;;19.10;98.50;;;;;;4852660;29;20077;-86
2021/07/08 02:40:35;;;;;;;5.35;2.20;;;19.10;98.50;;;;;;4857139;29;20119;-85
2021/07/08 02:43:02;;;;;;;2.83;2.38;;;19.10;98.50;;;;;;4859663;29;20033;-86
2021/07/08 02:45:31;;;;;;;5.22;2.13;;;19.10;98.50;;;;;;4861470;29;20053;-86
2021/07/08 02:47:58;;;;;;;2.95;2.22;;;19.10;98.40;;;;;;4853749;29;20544;-85
2021/07/08 02:50:26;;;;;;;3.58;2.38;;;19.10;98.40;;;;;;4871526;29;20137;-85
2021/07/08 02:52:52;;;;;;;4.10;2.55;;;19.10;98.40;;;;;;4855303;29;20108;-86
2021/07/08 02:55:19;;;;;;;3.78;2.35;;;19.10;98.30;;;;;;4852123;29;20417;-85
2021/07/08 02:57:47;;;;;;;5.75;2.25;;;19.10;98.30;;;;;;4854323;29;20104;-85
2021/07/08 03:00:16;;;;;;;3.35;2.10;;;19.00;98.30;;;;;;4856378;29;20064;-85
2021/07/08 03:02:42;;;;;;;5.22;2.13;;;19.00;98.30;;;;;;4854261;29;20037;-85
2021/07/08 03:05:09;;;;;;;4.18;2.25;;;19.00;98.30;;;;;;4860252;29;20056;-85
2021/07/08 03:07:35;;;;;;;3.80;2.25;;;19.00;98.30;;;;;;4852656;29;20072;-86
2021/07/08 03:10:01;;;;;;;7.68;2.60;;;19.10;98.40;;;;;;4849293;29;20133;-86
2021/07/08 03:12:26;;;;;;;7.03;2.38;;;19.00;98.30;;;;;;4860032;29;20053;-86
2021/07/08 03:14:52;;;;;;;5.70;2.22;;;19.00;98.30;;;;;;4848637;29;20167;-86
2021/07/08 03:17:17;;;;;;;3.00;2.40;;;19.10;98.30;;;;;;4845432;29;20042;-86
2021/07/08 03:19:43;;;;;;;7.20;2.15;;;19.10;98.30;;;;;;4859401;29;20309;-85
2021/07/08 03:22:09;;;;;;;4.80;2.65;;;19.10;98.30;;;;;;4854586;29;20095;-86
2021/07/08 03:24:34;;;;;;;3.75;1.98;;;19.10;98.30;;;;;;4868211;29;20429;-86
2021/07/08 03:27:00;;;;;;;3.53;2.20;;;19.10;98.20;;;;;;4869026;29;20046;-86
2021/07/08 03:29:25;;;;;;;5.72;2.10;;;19.10;98.20;;;;;;4851107;29;20092;-86
2021/07/08 03:31:51;;;;;;;3.20;2.05;;;19.10;98.20;;;;;;4860418;29;20444;-87
2021/07/08 03:34:16;;;;;;;6.30;2.30;;;19.10;98.10;;;;;;4860966;29;20037;-86
2021/07/08 03:36:42;;;;;;;4.13;2.00;;;19.20;98.10;;;;;;4868817;29;20322;-86
2021/07/08 03:39:08;;;;;;;4.80;2.85;;;19.20;98.10;;;;;;4853609;29;20050;-86
2021/07/08 03:41:33;;;;;;;4.47;2.20;;;19.20;98.10;;;;;;4853529;29;20049;-86
2021/07/08 03:43:59;;;;;;;4.68;2.20;;;19.20;98.00;;;;;;4856091;29;20053;-86
2021/07/08 03:46:25;;;;;;;3.92;2.30;;;19.20;98.00;;;;;;4867308;29;20060;-86
2021/07/08 03:48:51;;;;;;;4.75;2.00;;;19.20;98.00;;;;;;4860461;29;20045;-86
2021/07/08 03:51:17;;;;;;;2.67;1.90;;;19.20;98.00;;;;;;4854455;29;20057;-86
2021/07/08 03:53:42;;;;;;;7.88;2.90;;;19.20;98.00;;;;;;4867691;29;20046;-86
2021/07/08 03:56:08;;;;;;;7.63;2.33;;;19.30;98.00;;;;;;4868618;29;20332;-86
2021/07/08 03:58:33;;;;;;;11.27;2.40;;;19.30;98.00;;;;;;4855201;29;20050;-86
2021/07/08 04:00:59;;;;;;;3.38;2.17;;;19.30;98.00;;;;;;4872148;29;20046;-86
2021/07/08 04:03:25;;;;;;;6.53;2.40;;;19.30;98.00;;;;;;4849738;29;20041;-86
2021/07/08 04:05:51;;;;;;;3.38;2.00;;;19.30;98.10;;;;;;4859542;29;20381;-86
2021/07/08 04:08:17;;;;;;;2.80;2.05;;;19.30;98.10;;;;;;4848438;29;20310;-85
2021/07/08 04:10:44;;;;;;;4.53;1.92;;;19.30;98.10;;;;;;4866097;29;20064;-86
2021/07/08 04:13:15;;;;;;;4.22;2.25;;;19.40;98.10;;;;;;4858974;29;20034;-86
2021/07/08 04:15:42;;;;;;;8.43;2.42;;;19.40;98.10;;;;;;4850497;29;20072;-86
2021/07/08 04:18:09;;;;;;;5.93;2.20;;;19.40;98.00;;;;;;4849348;29;20366;-86
2021/07/08 04:20:35;;;;;;;6.28;2.30;;;19.30;98.00;;;;;;4852858;29;20050;-86
2021/07/08 04:23:01;;;;;;;6.95;3.30;;;19.30;98.00;;;;;;4856543;29;20055;-86
2021/07/08 04:25:27;;;;;;;10.23;3.80;;;19.40;97.90;;;;;;4851740;29;20402;-86
2021/07/08 04:27:53;;;;;;;4.35;3.35;;;19.30;97.90;;;;;;4856207;29;20061;-86
2021/07/08 04:30:21;;;;;;;8.55;2.97;;;19.30;97.90;;;;;;4859336;29;20128;-86
2021/07/08 04:32:48;;;;;;;5.55;3.03;;;19.30;98.00;;;;;;4857761;29;20048;-86
2021/07/08 04:35:24;;;;;;;8.00;2.95;;;19.30;98.00;;;;;;4853002;29;20037;-86
2021/07/08 04:37:50;;;;;;;7.93;3.20;;;19.20;98.10;;;;;;4847616;29;20038;-86
2021/07/08 04:40:18;;;;;;;9.15;3.63;;;19.20;98.00;;;;;;4859591;29;20056;-85
2021/07/08 04:42:45;;;;;;;7.90;3.03;;;19.20;98.10;;;;;;4855477;29;20382;-86
2021/07/08 04:45:11;;;;;;;8.13;2.97;;;19.30;98.10;;;;;;4861797;29;20060;-85
2021/07/08 04:47:38;;;;;;;8.38;3.13;;;19.30;98.10;;;;;;4860734;29;20080;-86
2021/07/08 04:50:06;;;;;;;9.45;3.15;;;19.30;98.00;;;;;;4858766;29;20064;-86
2021/07/08 04:52:32;;;;;;;6.15;3.15;;;19.30;98.00;;;;;;4852391;29;20087;-86
2021/07/08 04:54:57;;;;;;;8.43;2.97;;;19.30;98.00;;;;;;4854965;29;20069;-86
2021/07/08 04:57:23;;;;;;;7.60;3.40;;;19.40;98.10;;;;;;4866588;29;20041;-86
2021/07/08 04:59:48;;;;;;;5.68;2.60;;;19.40;98.10;;;;;;4854416;29;20117;-86
2021/07/08 05:02:14;;;;;;;9.32;3.58;;;19.40;98.10;;;;;;4876617;29;20041;-86
2021/07/08 05:04:40;;;;;;;8.75;2.70;;;19.40;98.10;;;;;;4858968;29;20113;-86
2021/07/08 05:07:06;;;;;;;6.57;2.58;;;19.50;98.20;;;;;;4853130;29;20045;-87
2021/07/08 05:09:32;;;;;;;5.45;2.75;;;19.50;98.20;;;;;;4852809;29;20038;-86
2021/07/08 05:11:57;;;;;;;8.50;2.35;;;19.50;98.10;;;;;;4859293;29;20128;-86
2021/07/08 05:14:22;;;;;;;7.60;2.45;;;19.50;98.20;;;;;;4861798;29;20076;-86
2021/07/08 05:16:48;;;;;;;4.43;2.58;;;19.60;98.20;;;;;;4858417;29;20049;-86
2021/07/08 05:19:13;;;;;;;5.00;2.20;;;19.60;98.00;;;;;;4867142;29;20057;-86
2021/07/08 05:21:50;;;;;;;4.93;2.70;;;19.60;97.80;;;;;;4861353;29;20166;-85
2021/07/08 05:24:21;;;;;;;8.50;3.75;;;19.70;97.80;;;;;;4861346;29;20489;-85
2021/07/08 05:26:48;;;;;;;14.33;3.20;;;19.70;97.70;;;;;;4856515;29;20431;-84
2021/07/08 05:29:14;;;;;;;11.05;2.40;;;19.70;97.80;;;;;;4868975;29;20049;-86
2021/07/08 05:31:39;;;;;;;10.02;3.25;;;19.70;97.70;;;;;;4851473;29;20382;-86
2021/07/08 05:34:05;;;;;;;4.65;2.70;;;19.70;97.70;;;;;;4870739;29;20124;-84
2021/07/08 05:36:31;;;;;;;7.60;2.92;;;19.80;97.70;;;;;;4867921;29;20433;-85
2021/07/08 05:38:56;;;;;;;4.20;2.42;;;19.80;97.60;;;;;;4857692;29;20061;-86
2021/07/08 05:41:23;;;;;;;11.13;2.97;;;19.80;97.60;;;;;;4856898;29;20470;-86
2021/07/08 05:43:48;;;;;;;5.85;2.28;;;19.90;97.50;;;;;;4854366;29;20049;-85
2021/07/08 05:46:13;;;;;;;8.55;2.75;;;19.90;97.60;;;;;;4847023;29;20045;-86
2021/07/08 05:48:39;;;;;;;8.98;3.15;;;20.00;97.60;;;;;;4855516;29;20061;-86
2021/07/08 05:51:04;;;;;;;9.38;3.33;;;20.00;97.90;;;;;;4868186;29;20041;-84
2021/07/08 05:53:30;;;;;;;4.18;2.63;;;20.00;97.60;;;;;;4847148;29;20041;-85
2021/07/08 05:55:55;;;;;;;5.95;2.85;;;20.10;97.50;;;;;;4847750;29;20467;-86
2021/07/08 05:58:21;;;;;;;5.10;2.38;;;20.10;97.60;;;;;;4849713;29;20042;-86
2021/07/08 06:00:48;;;;;;;6.65;2.95;;;20.10;97.70;;;;;;4865293;29;20038;-85
2021/07/08 06:03:16;;;;;;;9.50;2.92;;;20.10;97.40;;;;;;4856127;29;20033;-85
2021/07/08 06:05:42;;;;;;;3.97;2.15;;;20.20;97.10;;;;;;4859824;29;20287;-86
2021/07/08 06:08:08;;;;;;;10.98;2.42;;;20.20;97.00;;;;;;4847256;29;20041;-86
2021/07/08 06:10:34;;;;;;;6.85;2.53;;;20.20;97.00;;;;;;4873380;29;20402;-86
2021/07/08 06:12:59;;;;;;;3.40;2.40;;;20.30;97.00;;;;;;4844183;29;20543;-85
2021/07/08 06:15:25;;;;;;;9.38;2.90;;;20.30;97.00;;;;;;4851595;29;20128;-85
2021/07/08 06:17:50;;;;;;;9.65;2.55;;;20.40;96.90;;;;;;4859570;29;20048;-85
2021/07/08 06:20:17;;;;;;;4.00;2.45;;;20.50;97.00;;;;;;4872812;29;20334;-85
2021/07/08 06:22:46;;;;;;;4.20;2.42;;;20.50;96.80;;;;;;4852417;29;20129;-86
2021/07/08 06:25:12;;;;;;;6.35;2.33;;;20.60;96.80;;;;;;4856844;29;20132;-86
2021/07/08 06:27:38;;;;;;;3.38;2.30;;;20.60;96.60;;;;;;4857788;29;20042;-86
2021/07/08 06:30:05;;;;;;;2.75;1.98;;;20.70;96.10;;;;;;4852061;29;20521;-86
2021/07/08 06:32:31;;;;;;;3.78;2.30;;;20.80;96.00;;;;;;4860331;29;20610;-86
2021/07/08 06:34:57;;;;;;;5.07;2.15;;;20.90;96.00;;;;;;4851406;29;20045;-86
2021/07/08 06:37:22;;;;;;;6.30;2.72;;;21.10;95.90;;;;;;4847286;29;20443;-85
2021/07/08 06:39:50;;;;;;;5.38;2.42;;;21.20;95.70;;;;;;4856894;29;20057;-86
2021/07/08 06:42:17;;;;;;;4.40;2.17;;;21.20;95.60;;;;;;4854352;29;20206;-86
2021/07/08 06:44:43;;;;;;;5.15;2.45;;;21.30;95.20;;;;;;4850926;29;20056;-86
2021/07/08 06:47:13;;;;;;;4.65;1.90;;;21.30;95.10;;;;;;4855532;29;20053;-86
2021/07/08 06:49:38;;;;;;;3.83;2.42;;;21.30;95.00;;;;;;4855757;29;20100;-86
2021/07/08 06:52:04;;;;;;;8.85;2.50;;;21.40;95.10;;;;;;4859543;29;20045;-86
2021/07/08 06:54:30;;;;;;;5.65;2.47;;;21.40;94.80;;;;;;4874125;29;20037;-86
2021/07/08 06:56:55;;;;;;;3.78;2.45;;;21.40;94.90;;;;;;4867226;29;20042;-86
2021/07/08 06:59:21;;;;;;;9.27;2.45;;;21.40;94.90;;;;;;4851243;29;20109;-86
2021/07/08 07:01:46;;;;;;;9.60;2.53;;;21.40;94.80;;;;;;4847230;29;20042;-86
2021/07/08 07:04:12;;;;;;;6.40;2.28;;;21.40;95.10;;;;;;4873349;29;20082;-86
2021/07/08 07:06:37;;;;;;;3.53;2.55;;;21.40;95.10;;;;;;4859744;29;20341;-86
2021/07/08 07:09:03;;;;;;;4.75;3.10;;;21.40;95.10;;;;;;4856214;29;20065;-87
2021/07/08 07:11:28;;;;;;;7.13;2.03;;;21.40;95.20;;;;;;4860568;29;20112;-86
2021/07/08 07:13:54;;;;;;;11.75;2.90;;;21.40;95.20;;;;;;4857040;29;20052;-85
2021/07/08 07:16:19;;;;;;;6.95;2.55;;;21.50;95.00;;;;;;4850699;29;20042;-86
2021/07/08 07:18:45;;;;;;;7.07;3.17;;;21.50;94.80;;;;;;4855888;29;20445;-86
2021/07/08 07:21:11;;;;;;;6.72;3.55;;;21.50;95.10;;;;;;4854207;29;20049;-86
2021/07/08 07:23:38;;;;;;;11.27;3.30;;;21.50;95.10;;;;;;4844907;29;20433;-87
2021/07/08 07:26:04;;;;;;;5.93;2.72;;;21.60;95.10;;;;;;4860238;29;20053;-86
2021/07/08 07:28:30;;;;;;;6.13;3.28;;;21.60;95.30;;;;;;4851818;29;20045;-86
2021/07/08 07:30:55;;;;;;;9.07;3.90;;;21.60;94.90;;;;;;4850981;29;20046;-86
2021/07/08 07:33:21;;;;;;;2.58;1.77;;;21.70;94.70;;;;;;4855654;29;20144;-86
2021/07/08 07:35:47;;;;;;;121.72;76.35;;;21.70;93.90;;;;;;4857622;29;20055;-86
2021/07/08 07:38:12;;;;;;;56.25;26.10;;;21.80;94.20;;;;;;4856884;29;20448;-86
2021/07/08 07:40:43;;;;;;;6.10;4.43;;;21.80;94.30;;;;;;4859616;29;20146;-85
2021/07/08 07:43:09;;;;;;;14.15;8.15;;;21.80;94.50;;;;;;4873199;29;20045;-87
2021/07/08 07:45:35;;;;;;;12.43;6.68;;;21.80;94.50;;;;;;4860811;29;20048;-86
2021/07/08 07:48:00;;;;;;;11.93;5.53;;;21.80;95.10;;;;;;4860392;29;20339;-86
2021/07/08 07:50:26;;;;;;;7.15;3.53;;;21.80;95.10;;;;;;4876970;29;20041;-91
2021/07/08 07:52:55;;;;;;;7.93;3.97;;;21.80;95.00;;;;;;4849521;29;20046;-90
2021/07/08 07:55:21;;;;;;;7.25;3.08;;;21.80;95.30;;;;;;4860210;29;20320;-91
2021/07/08 07:57:46;;;;;;;5.45;3.35;;;21.80;95.50;;;;;;4864498;29;20038;-90
2021/07/08 08:00:12;;;;;;;7.43;3.35;;;21.80;95.40;;;;;;4857462;29;20329;-91
2021/07/08 08:02:38;;;;;;;8.25;3.45;;;21.80;95.00;;;;;;4867262;29;20128;-92
2021/07/08 08:10:15;;;;;;;8.18;3.50;;;21.80;95.60;;;;;;4868428;29;20101;-92
2021/07/08 08:12:41;;;;;;;5.88;3.67;;;21.70;96.00;;;;;;4868154;29;20044;-91
2021/07/08 08:15:08;;;;;;;8.05;4.40;;;21.70;96.10;;;;;;4866622;29;20049;-91
2021/07/08 08:17:35;;;;;;;8.20;3.92;;;21.70;95.90;;;;;;4867194;29;20567;-90
2021/07/08 08:20:01;;;;;;;3.95;3.22;;;21.70;95.90;;;;;;4867942;29;20303;-91
2021/07/08 08:22:26;;;;;;;8.25;3.97;;;21.70;96.10;;;;;;4882742;29;20112;-91
2021/07/08 08:24:52;;;;;;;4.35;3.53;;;21.60;96.50;;;;;;4882275;29;20140;-91
2021/07/08 08:27:19;;;;;;;6.68;3.80;;;21.60;96.50;;;;;;4867591;29;20045;-90
2021/07/08 08:29:44;;;;;;;7.35;3.70;;;21.70;95.70;;;;;;4882539;29;20053;-92
2021/07/08 08:32:10;;;;;;;9.02;4.28;;;21.70;95.40;;;;;;4867898;29;20446;-92
2021/07/08 08:34:36;;;;;;;9.50;4.40;;;21.80;95.70;;;;;;4882085;29;20057;-90
2021/07/08 08:37:02;;;;;;;8.80;3.83;;;21.80;96.00;;;;;;4866135;29;20042;-90
2021/07/08 08:39:28;;;;;;;8.82;4.07;;;21.80;96.50;;;;;;4856305;29;20319;-91
2021/07/08 08:41:53;;;;;;;8.80;4.97;;;21.90;96.10;;;;;;4863618;29;20072;-91
2021/07/08 08:44:19;;;;;;;8.07;4.80;;;22.00;96.10;;;;;;4866902;29;20045;-90
2021/07/08 08:46:46;;;;;;;9.93;4.15;;;22.00;96.60;;;;;;4866745;29;20084;-89
2021/07/08 08:49:12;;;;;;;15.73;5.80;;;22.10;96.40;;;;;;4866061;29;20045;-89
2021/07/08 08:51:38;;;;;;;8.00;5.15;;;22.20;96.50;;;;;;4867001;29;20302;-90
2021/07/08 08:54:04;;;;;;;11.25;5.38;;;22.20;96.30;;;;;;4866775;29;20045;-89
2021/07/08 08:56:29;;;;;;;10.02;5.50;;;22.20;96.30;;;;;;4865532;29;20045;-89
2021/07/08 08:58:55;;;;;;;12.80;5.43;;;22.20;95.80;;;;;;4863783;29;20128;-90
2021/07/08 09:01:21;;;;;;;14.07;5.63;;;22.20;95.70;;;;;;4850794;29;20553;-90
2021/07/08 09:03:47;;;;;;;8.20;5.50;;;22.10;95.90;;;;;;4865007;29;20109;-91
2021/07/08 09:06:14;;;;;;;8.77;5.43;;;22.10;96.00;;;;;;4865502;29;20060;-90
2021/07/08 09:08:45;;;;;;;12.35;5.93;;;22.10;96.50;;;;;;4880468;29;20045;-89
2021/07/08 09:11:19;;;;;;;12.25;6.35;;;22.10;96.60;;;;;;4865178;29;20101;-90
2021/07/08 09:13:56;;;;;;;7.03;5.60;;;22.10;96.60;;;;;;4865890;29;20080;-88
2021/07/08 09:16:28;;;;;;;15.43;6.13;;;22.10;96.30;;;;;;4865561;29;20043;-90
2021/07/08 09:19:00;;;;;;;10.75;5.70;;;22.10;95.80;;;;;;4865600;29;20426;-89
2021/07/08 09:21:26;;;;;;;10.53;6.03;;;22.10;96.10;;;;;;4847779;29;20109;-90
2021/07/08 09:24:22;;;;;;;10.55;6.63;;;22.10;96.00;;;;;;4857979;29;20049;-89
2021/07/08 09:27:10;;;;;;;8.73;6.38;;;22.20;96.30;;;;;;4854645;29;20608;-90
2021/07/08 09:29:40;;;;;;;10.02;5.75;;;22.20;96.50;;;;;;4865002;29;20357;-89
2021/07/08 09:32:10;;;;;;;8.50;5.03;;;22.20;96.10;;;;;;4880488;29;20044;-90
2021/07/08 09:34:37;;;;;;;5.60;4.88;;;22.20;95.60;;;;;;4863886;29;20132;-89
2021/07/08 09:37:17;;;;;;;4.95;4.32;;;22.20;95.90;;;;;;4864902;29;20124;-89
2021/07/08 09:40:04;;;;;;;7.07;5.32;;;22.30;94.60;;;;;;4864809;29;20102;-90
2021/07/08 09:42:37;;;;;;;8.63;4.43;;;22.30;94.40;;;;;;4880278;29;20053;-89
2021/07/08 09:45:11;;;;;;;9.25;5.35;;;22.30;94.60;;;;;;4879803;29;20045;-90
2021/07/08 09:47:40;;;;;;;12.82;5.57;;;22.40;95.20;;;;;;4865900;29;20306;-90
2021/07/08 09:50:07;;;;;;;8.88;5.82;;;22.40;95.60;;;;;;4875437;29;20059;-89
2021/07/08 09:52:33;;;;;;;7.53;5.55;;;22.30;95.10;;;;;;4858284;29;20382;-91
2021/07/08 09:57:47;;;;;;;7.63;5.35;;;22.40;94.70;;;;;;4865347;29;20036;-91
2021/07/08 10:00:19;;;;;;;6.30;4.80;;;22.40;94.80;;;;;;4880535;29;20041;-90
2021/07/08 10:02:49;;;;;;;6.23;4.67;;;22.30;95.00;;;;;;4865220;29;20089;-90
2021/07/08 10:05:16;;;;;;;6.78;4.88;;;22.30;95.20;;;;;;4863781;29;20315;-89
2021/07/08 10:07:43;;;;;;;6.80;4.53;;;22.30;95.30;;;;;;4864007;29;20454;-89
2021/07/08 10:10:10;;;;;;;5.03;3.92;;;22.30;94.80;;;;;;4863013;29;20109;-89
2021/07/08 10:12:37;;;;;;;5.60;4.05;;;22.20;94.60;;;;;;4863733;29;20123;-90
2021/07/08 10:15:06;;;;;;;4.22;3.58;;;22.20;95.00;;;;;;4863901;29;20037;-89
2021/07/08 10:17:33;;;;;;;9.60;4.38;;;22.20;94.90;;;;;;4864293;29;20132;-90
2021/07/08 10:20:00;;;;;;;7.20;3.65;;;22.10;94.50;;;;;;4863541;29;20049;-90
2021/07/08 10:22:26;;;;;;;4.30;3.83;;;22.00;94.90;;;;;;4862851;29;20322;-90
2021/07/08 10:24:52;;;;;;;4.68;3.90;;;22.00;95.30;;;;;;4863258;29;20049;-90
2021/07/08 10:27:18;;;;;;;6.22;4.53;;;21.90;95.70;;;;;;4864411;29;20142;-89
2021/07/08 10:29:45;;;;;;;4.95;3.90;;;21.90;96.10;;;;;;4863057;29;20049;-89
2021/07/08 10:32:15;;;;;;;11.25;4.90;;;21.80;96.30;;;;;;4865411;29;20580;-88
2021/07/08 10:34:46;;;;;;;7.65;3.95;;;21.80;95.90;;;;;;4863362;29;20048;-93
2021/07/08 10:37:27;;;;;;;8.73;3.80;;;21.80;96.50;;;;;;4863945;29;20487;-89
2021/07/08 10:39:54;;;;;;;6.95;3.72;;;21.80;96.30;;;;;;4863226;29;20042;-89
2021/07/08 10:42:48;;;;;;;7.57;2.95;;;21.80;96.90;;;;;;4862077;29;20075;-89
2021/07/08 10:45:23;;;;;;;7.28;3.25;;;21.80;96.80;;;;;;4861975;29;20136;-85
2021/07/08 10:47:53;;;;;;;4.00;3.25;;;21.80;96.00;;;;;;4861507;29;20090;-88
2021/07/08 10:50:38;;;;;;;5.45;3.25;;;21.80;96.00;;;;;;4847454;29;20038;-87
2021/07/08 10:53:18;;;;;;;7.55;3.45;;;21.90;96.50;;;;;;4869169;29;20699;-85
2021/07/08 10:56:02;;;;;;;6.50;3.63;;;22.00;96.30;;;;;;4878934;29;20038;-95
2021/07/08 10:58:48;;;;;;;4.50;3.28;;;22.10;96.60;;;;;;4872309;29;20131;-85
2021/07/08 11:01:22;;;;;;;5.10;3.70;;;22.20;96.80;;;;;;4860473;29;20065;-85
2021/07/08 11:03:48;;;;;;;6.97;3.85;;;22.20;96.40;;;;;;4858693;29;20044;-86
2021/07/08 11:06:17;;;;;;;12.98;3.67;;;22.20;96.10;;;;;;4860146;29;20050;-86
2021/07/08 11:08:49;;;;;;;4.68;3.33;;;22.30;95.60;;;;;;4844611;29;20054;-85
2021/07/08 11:11:23;;;;;;;7.43;3.85;;;22.30;96.30;;;;;;4854261;29;20102;-85
2021/07/08 11:13:53;;;;;;;4.20;3.47;;;22.30;96.50;;;;;;4861034;29;20046;-86
2021/07/08 11:16:38;;;;;;;6.95;3.03;;;22.30;96.30;;;;;;4874798;29;20053;-85
2021/07/08 11:19:04;;;;;;;7.22;3.35;;;22.30;96.10;;;;;;4877225;29;20041;-86
2021/07/08 11:21:48;;;;;;;4.70;3.20;;;22.30;96.60;;;;;;4877224;29;20045;-85
2021/07/08 11:24:18;;;;;;;5.43;3.65;;;22.40;96.60;;;;;;4875098;29;20053;-86
2021/07/08 11:27:14;;;;;;;13.35;3.28;;;22.40;96.50;;;;;;4876002;29;20041;-86
2021/07/08 11:29:55;;;;;;;4.55;3.22;;;22.50;96.40;;;;;;4842565;29;20060;-86
2021/07/08 11:32:30;;;;;;;4.50;2.97;;;22.50;96.50;;;;;;4875570;29;20037;-86
2021/07/08 11:35:18;;;;;;;3.42;3.13;;;22.60;96.40;;;;;;4864528;29;20124;-86
2021/07/08 11:37:51;;;;;;;3.75;3.45;;;22.70;96.10;;;;;;4863850;29;20126;-86
2021/07/08 11:40:18;;;;;;;3.42;2.72;;;22.70;96.90;;;;;;4858773;29;20454;-86
2021/07/08 11:42:46;;;;;;;2.97;2.67;;;22.80;95.60;;;;;;4865328;29;20124;-86
2021/07/08 11:45:14;;;;;;;6.13;2.83;;;23.00;95.70;;;;;;4879203;29;20088;-85
2021/07/08 11:47:52;;;;;;;4.07;3.05;;;23.00;95.10;;;;;;4865868;29;20053;-86
2021/07/08 11:50:23;;;;;;;4.90;2.65;;;23.10;94.40;;;;;;4864705;29;20049;-86
2021/07/08 11:53:06;;;;;;;2.80;2.20;;;23.10;94.60;;;;;;4864301;29;20046;-86
2021/07/08 11:55:33;;;;;;;2.58;2.38;;;23.10;94.30;;;;;;4861776;29;20080;-86
2021/07/08 11:58:00;;;;;;;1.98;1.77;;;23.10;94.70;;;;;;4865375;29;20049;-86
2021/07/08 12:00:31;;;;;;;4.85;2.13;;;23.00;93.40;;;;;;4864485;29;20041;-85
2021/07/08 12:02:59;;;;;;;2.28;2.08;;;23.00;93.90;;;;;;4849588;29;20080;-85
2021/07/08 12:05:25;;;;;;;3.35;2.13;;;22.90;94.10;;;;;;4860240;29;20061;-86
2021/07/08 12:07:56;;;;;;;4.90;2.25;;;22.80;94.00;;;;;;4862072;29;20038;-86
2021/07/08 12:10:24;;;;;;;7.40;2.35;;;22.70;94.00;;;;;;4851768;29;20045;-86
2021/07/08 12:12:55;;;;;;;2.58;2.17;;;22.70;94.60;;;;;;4864922;29;20053;-86
2021/07/08 12:15:22;;;;;;;4.07;2.45;;;22.60;95.00;;;;;;4863069;29;20030;-86
2021/07/08 12:17:57;;;;;;;3.15;2.05;;;22.50;94.90;;;;;;4854950;29;20121;-86
2021/07/08 12:20:23;;;;;;;3.55;2.10;;;22.50;94.80;;;;;;4879975;29;20105;-86
2021/07/08 12:22:59;;;;;;;3.05;2.08;;;22.40;94.80;;;;;;4864696;29;20054;-87
2021/07/08 12:25:26;;;;;;;3.47;1.80;;;22.40;95.00;;;;;;4863596;29;20049;-86
2021/07/08 12:27:52;;;;;;;2.83;2.30;;;22.30;94.70;;;;;;4879936;29;20041;-86
2021/07/08 12:30:26;;;;;;;2.25;2.05;;;22.20;94.70;;;;;;4879438;29;20045;-86
2021/07/08 12:33:07;;;;;;;2.03;1.40;;;22.30;94.00;;;;;;4880259;29;20033;-87
2021/07/08 12:35:59;;;;;;;2.65;1.88;;;22.20;94.00;;;;;;4878082;29;20148;-85
2021/07/08 12:38:25;;;;;;;4.03;2.42;;;22.10;94.40;;;;;;4862098;29;20397;-86
2021/07/08 12:41:00;;;;;;;3.92;2.92;;;22.00;94.70;;;;;;4874969;29;20049;-85
2021/07/08 12:43:26;;;;;;;5.32;2.38;;;21.90;95.20;;;;;;4875139;29;20038;-86
2021/07/08 12:45:52;;;;;;;6.45;2.80;;;21.80;95.50;;;;;;4859440;29;20042;-85
2021/07/08 12:48:17;;;;;;;3.22;2.83;;;21.80;95.80;;;;;;4858603;29;20076;-85
2021/07/08 12:50:45;;;;;;;2.95;2.65;;;21.70;96.40;;;;;;4879609;29;20041;-86
2021/07/08 12:53:13;;;;;;;5.88;2.55;;;21.70;96.70;;;;;;4875279;29;20394;-86
2021/07/08 12:55:41;;;;;;;7.30;2.95;;;21.70;96.60;;;;;;4859507;29;20041;-86
2021/07/08 12:58:17;;;;;;;4.10;2.90;;;21.80;96.50;;;;;;4858197;29;20052;-86